Hauptseite
METAR-TAF:

METAR-TAF

Flughäfen :

Flughafen Larnaka

Larnaka, Zypern

Breite: 34-53N, Länge: 033-38E, Höhe: 2 m

Beobachtung

Neuester Wetterbericht von vor 23 Minuten, um 07:30 UTC
Wind 6 kt aus Ost/Südost
Temperatur 26°C
Luftfeuchtigkeit 58%
Luftdruck 1011 hPa
Sichtweite 10 km oder mehr
Leicht bewölkt in der Höhe von 2500 ft

METAR: LCLK 270730Z 12006KT 9999 FEW025 26/17 Q1011 NOSIG

Zeit: 10:53 (07:53 UTC)

Prognose

Neuester Wetterbericht von vor 2 Stunden und 23 Minuten, um 05:30 UTC
Gültige Prognose vom 27 um 06 UTC bis 28 um 06 UTC
Wind 7 kt aus Ost/Nordost
Sichtweite 10 km oder mehr
Leicht bewölkt in der Höhe von 3000 ft
Übergehend zu
vom 27 um 09 UTC bis 27 um 12 UTC
Wind 12 kt aus Süd/Südwest
Übergehend zu
vom 27 um 17 UTC bis 27 um 20 UTC
Wind 7 kt aus Nord/Nordwest

TAF: LCLK 270530Z 2706/2806 06007KT 9999 FEW030 BECMG 2709/2712 21012KT BECMG 2717/2720 33007KT

Wetterbeobachtungen und Prognosen von mehr als 4000 Flughäfen (METAR und TAF Bericht).

Die verfügbaren Stationen werden durch gelbe und rote Markierungen auf der Karte dargestellt.

Führen Sie die Maus auf sie, um den Namen der Station zu sehen.

Darauf klicken, um die Beobachtung von Wetterbeobachtungen und Prognosen zu sehen.

Um die Karte zu ändern : klicken Sie auf den grünen Tasten mit einem schwarzen Kreuz Zum Vergrößern, auf den grünen Button mit einem Gedankenstrich zu verkleinern, oder auf die grünen Pfeile für benachbarte Karten.


METAR-TAF: